Time;durP1;ratioP1;P1;durP2;ratioP2;P2;SDS_P1;SDS_P2;PMS_P1;PMS_P2;Temp;Humidity;BMP_temperature;BMP_pressure;BME280_temperature;BME280_humidity;BME280_pressure;Samples;Min_cycle;Max_cycle;Signal;HPM_P1;HPM_P2
2023/06/28 00:01:27;;;;;;;3.58;1.85;;;17.90;94.90;;;;;;4887460;29;20060;-78
2023/06/28 00:03:55;;;;;;;3.53;1.98;;;18.50;95.30;;;;;;4864345;29;20055;-78
2023/06/28 00:06:25;;;;;;;2.47;1.60;;;18.70;95.20;;;;;;4869148;29;20048;-78
2023/06/28 00:08:55;;;;;;;3.55;1.48;;;18.50;95.40;;;;;;4863692;29;20398;-78
2023/06/28 00:11:25;;;;;;;4.93;1.75;;;18.60;96.00;;;;;;4870782;29;20512;-78
2023/06/28 00:13:53;;;;;;;2.63;1.77;;;18.50;95.50;;;;;;4887369;29;20079;-78
2023/06/28 00:16:23;;;;;;;9.43;1.85;;;18.20;95.50;;;;;;4878503;29;20053;-78
2023/06/28 00:18:52;;;;;;;2.60;1.65;;;18.40;95.40;;;;;;4876738;29;20511;-78
2023/06/28 00:21:22;;;;;;;3.83;1.40;;;18.40;95.20;;;;;;4878287;29;20439;-78
2023/06/28 00:23:54;;;;;;;2.95;1.38;;;18.30;94.90;;;;;;4892292;29;20048;-78
2023/06/28 00:26:22;;;;;;;2.88;1.77;;;18.40;95.10;;;;;;4902079;29;20071;-78
2023/06/28 00:28:49;;;;;;;3.97;1.65;;;18.30;95.30;;;;;;4886343;29;20051;-78
2023/06/28 00:31:17;;;;;;;2.45;1.50;;;18.30;95.40;;;;;;4868806;29;20052;-78
2023/06/28 00:33:46;;;;;;;3.28;2.03;;;18.30;95.30;;;;;;4889902;29;20409;-78
2023/06/28 00:36:13;;;;;;;3.97;1.55;;;18.30;95.50;;;;;;4888382;29;20079;-78
2023/06/28 00:38:41;;;;;;;3.88;2.13;;;18.30;95.30;;;;;;4884976;29;20048;-78
2023/06/28 00:41:14;;;;;;;2.88;1.77;;;18.10;95.10;;;;;;4893794;29;20124;-78
2023/06/28 00:43:45;;;;;;;2.47;1.58;;;18.20;95.10;;;;;;4886389;29;22843;-78
2023/06/28 00:46:12;;;;;;;3.22;1.95;;;18.20;95.30;;;;;;4903939;29;20472;-78
2023/06/28 00:48:41;;;;;;;2.97;1.98;;;18.20;95.50;;;;;;4901123;29;20148;-78
2023/06/28 00:51:10;;;;;;;4.22;1.73;;;18.20;95.90;;;;;;4886110;29;20048;-78
2023/06/28 00:53:38;;;;;;;4.43;2.10;;;18.40;95.80;;;;;;4880779;29;20056;-78
2023/06/28 00:56:05;;;;;;;2.72;1.45;;;18.10;95.80;;;;;;4893990;29;20052;-78
2023/06/28 00:58:34;;;;;;;4.15;1.88;;;18.10;95.80;;;;;;4890053;29;20048;-78
2023/06/28 01:01:01;;;;;;;4.05;1.83;;;18.00;96.30;;;;;;4882938;29;20092;-78
2023/06/28 01:03:29;;;;;;;5.90;1.70;;;18.10;95.80;;;;;;4884361;29;20040;-78
2023/06/28 01:06:00;;;;;;;2.90;1.55;;;18.20;95.80;;;;;;4877307;29;20054;-78
2023/06/28 01:08:28;;;;;;;2.50;1.70;;;18.10;95.90;;;;;;4891755;29;20487;-78
2023/06/28 01:10:56;;;;;;;4.15;1.73;;;17.90;95.80;;;;;;4873038;29;20054;-78
2023/06/28 01:13:24;;;;;;;4.85;1.67;;;18.00;96.20;;;;;;4874924;29;20397;-78
2023/06/28 01:15:51;;;;;;;1.92;1.65;;;18.30;96.90;;;;;;4886157;29;20127;-78
2023/06/28 01:18:21;;;;;;;4.38;1.80;;;17.60;97.00;;;;;;4878270;29;20064;-78
2023/06/28 01:20:54;;;;;;;4.07;2.17;;;17.90;96.50;;;;;;4889316;29;20051;-78
2023/06/28 01:23:25;;;;;;;3.42;1.52;;;18.20;97.40;;;;;;4885931;29;20060;-78
2023/06/28 01:25:55;;;;;;;4.80;1.80;;;18.00;97.50;;;;;;4901187;29;20052;-78
2023/06/28 01:28:22;;;;;;;5.88;1.90;;;18.00;97.20;;;;;;4893598;29;20175;-78
2023/06/28 01:30:52;;;;;;;2.83;2.05;;;17.90;96.70;;;;;;4892476;29;20048;-78
2023/06/28 01:33:20;;;;;;;3.85;2.03;;;18.00;96.40;;;;;;4890054;29;20131;-78
2023/06/28 01:35:48;;;;;;;2.45;1.45;;;18.00;96.30;;;;;;4876373;29;20048;-78
2023/06/28 01:38:16;;;;;;;3.17;1.60;;;18.00;96.40;;;;;;4891642;29;20168;-78
2023/06/28 01:40:45;;;;;;;3.92;1.80;;;17.90;95.90;;;;;;4868054;29;20048;-78
2023/06/28 01:43:12;;;;;;;8.77;2.97;;;18.00;95.70;;;;;;4886083;29;20045;-78
2023/06/28 01:45:40;;;;;;;4.50;1.25;;;18.00;96.10;;;;;;4900749;29;20048;-78
2023/06/28 01:48:07;;;;;;;6.07;1.90;;;18.00;96.00;;;;;;4878422;29;20063;-78
2023/06/28 01:50:37;;;;;;;4.28;1.92;;;18.00;96.30;;;;;;4882633;29;20056;-78
2023/06/28 01:53:07;;;;;;;;;;;17.90;96.00;;;;;;4878591;29;20154;-78
2023/06/28 01:55:35;;;;;;;3.92;2.17;;;17.70;96.30;;;;;;4904388;29;20010;-78
2023/06/28 01:58:02;;;;;;;5.57;1.80;;;17.70;96.10;;;;;;4887682;29;20041;-78
2023/06/28 02:00:30;;;;;;;3.35;1.25;;;18.00;95.70;;;;;;4892250;29;20040;-78
2023/06/28 02:03:00;;;;;;;3.00;1.75;;;17.90;95.50;;;;;;4903189;29;20054;-78
2023/06/28 02:05:28;;;;;;;3.85;1.85;;;17.90;95.10;;;;;;4876842;29;20048;-78
2023/06/28 02:07:58;;;;;;;4.50;1.42;;;17.90;95.40;;;;;;4877566;29;20049;-78
2023/06/28 02:10:26;;;;;;;5.38;1.65;;;17.80;95.40;;;;;;4867626;29;20051;-78
2023/06/28 02:12:55;;;;;;;4.38;1.83;;;17.80;95.60;;;;;;4884059;29;20057;-78
2023/06/28 02:15:23;;;;;;;11.15;2.20;;;17.90;95.50;;;;;;4882265;29;20060;-78
2023/06/28 02:17:55;;;;;;;1.48;1.17;;;17.90;95.70;;;;;;4889753;29;20179;-78
2023/06/28 02:20:23;;;;;;;5.03;1.75;;;17.90;96.50;;;;;;4900739;29;20047;-78
2023/06/28 02:22:50;;;;;;;5.32;1.70;;;17.90;96.40;;;;;;4884662;29;20052;-78
2023/06/28 02:25:18;;;;;;;2.58;1.80;;;18.00;96.60;;;;;;4884857;29;20072;-78
2023/06/28 02:27:46;;;;;;;3.22;1.73;;;17.90;96.70;;;;;;4884534;29;20049;-78
2023/06/28 02:30:14;;;;;;;2.55;1.63;;;17.80;96.40;;;;;;4869446;29;22819;-78
2023/06/28 02:32:43;;;;;;;3.22;2.00;;;17.80;96.70;;;;;;4892119;29;20131;-78
2023/06/28 02:35:15;;;;;;;4.47;2.30;;;17.70;97.10;;;;;;4898423;29;20152;-78
2023/06/28 02:37:43;;;;;;;2.53;1.50;;;17.80;97.10;;;;;;4891073;29;20408;-78
2023/06/28 02:40:13;;;;;;;3.63;2.05;;;17.80;97.00;;;;;;4892250;29;20781;-78
2023/06/28 02:42:40;;;;;;;2.78;1.63;;;17.90;97.80;;;;;;4896988;29;20052;-78
2023/06/28 02:45:15;;;;;;;2.67;1.88;;;17.80;97.50;;;;;;4875672;29;20100;-78
2023/06/28 02:47:42;;;;;;;3.33;1.90;;;17.60;97.00;;;;;;4884192;29;20650;-78
2023/06/28 02:50:14;;;;;;;5.28;1.98;;;17.80;97.70;;;;;;4893836;29;20063;-78
2023/06/28 02:53:00;;;;;;;3.47;1.83;;;17.80;97.40;;;;;;4883614;29;20109;-78
2023/06/28 02:55:28;;;;;;;5.15;1.80;;;17.60;97.70;;;;;;4886619;29;20047;-78
2023/06/28 02:58:02;;;;;;;4.05;2.65;;;17.60;97.70;;;;;;4898274;29;20057;-78
2023/06/28 03:00:30;;;;;;;6.15;2.08;;;17.60;97.90;;;;;;4878591;29;20048;-78
2023/06/28 03:03:03;;;;;;;3.25;1.85;;;17.70;98.30;;;;;;4901140;29;20187;-78
2023/06/28 03:05:32;;;;;;;5.25;2.35;;;17.70;98.30;;;;;;4903034;29;20048;-78
2023/06/28 03:08:03;;;;;;;3.38;2.38;;;17.60;98.50;;;;;;4902387;29;20116;-78
2023/06/28 03:10:31;;;;;;;5.13;2.72;;;17.60;98.20;;;;;;4878432;29;20060;-78
2023/06/28 03:12:59;;;;;;;4.20;2.15;;;17.80;98.50;;;;;;4876358;29;20090;-78
2023/06/28 03:15:26;;;;;;;4.07;2.08;;;17.50;98.70;;;;;;4887426;29;20124;-78
2023/06/28 03:17:56;;;;;;;4.75;2.47;;;17.50;99.10;;;;;;4902944;29;20496;-78
2023/06/28 03:20:25;;;;;;;3.47;2.28;;;17.60;99.20;;;;;;4883284;29;20068;-78
2023/06/28 03:22:55;;;;;;;3.60;2.30;;;17.50;99.50;;;;;;4884372;29;20055;-78
2023/06/28 03:25:22;;;;;;;6.40;2.40;;;17.40;99.40;;;;;;4877361;29;20722;-78
2023/06/28 03:27:53;;;;;;;5.22;3.05;;;17.40;99.40;;;;;;4874916;29;20512;-78
2023/06/28 03:30:22;;;;;;;3.90;2.10;;;17.50;99.40;;;;;;4884943;29;20068;-78
2023/06/28 03:32:50;;;;;;;5.07;2.38;;;17.50;99.40;;;;;;4877255;29;20058;-78
2023/06/28 03:35:17;;;;;;;7.45;3.10;;;17.60;99.70;;;;;;4885644;29;24470;-78
2023/06/28 03:37:54;;;;;;;4.38;2.30;;;17.50;99.70;;;;;;4870672;29;20074;-78
2023/06/28 03:40:22;;;;;;;4.05;2.15;;;17.50;99.60;;;;;;4904204;29;20508;-78
2023/06/28 03:42:50;;;;;;;3.08;2.10;;;16.80;99.50;;;;;;4889488;29;20048;-78
2023/06/28 03:45:17;;;;;;;3.53;2.00;;;17.40;99.60;;;;;;4885982;29;20128;-78
2023/06/28 03:47:47;;;;;;;5.28;2.33;;;17.50;99.40;;;;;;4892690;29;20108;-78
2023/06/28 03:50:18;;;;;;;6.05;2.72;;;17.50;99.20;;;;;;4893218;29;20083;-78
2023/06/28 03:52:49;;;;;;;4.05;2.10;;;17.50;99.70;;;;;;4876992;29;20135;-78
2023/06/28 03:55:16;;;;;;;3.85;2.15;;;17.20;99.90;;;;;;4895614;29;20139;-78
2023/06/28 03:57:47;;;;;;;4.15;2.28;;;17.60;99.60;;;;;;4874026;29;20052;-78
2023/06/28 04:00:15;;;;;;;3.67;1.98;;;17.60;99.90;;;;;;4890216;29;20059;-78
2023/06/28 04:02:44;;;;;;;3.78;2.20;;;17.70;99.90;;;;;;4892735;29;20152;-78
2023/06/28 04:05:12;;;;;;;6.63;2.35;;;17.70;99.90;;;;;;4872439;29;20052;-78
2023/06/28 04:07:39;;;;;;;3.53;1.85;;;17.50;99.90;;;;;;4877020;29;20582;-78
2023/06/28 04:10:08;;;;;;;2.22;1.92;;;17.50;99.20;;;;;;4889669;29;20060;-78
2023/06/28 04:12:35;;;;;;;5.38;2.28;;;17.70;99.30;;;;;;4895242;29;20053;-78
2023/06/28 04:15:07;;;;;;;3.30;1.98;;;16.90;99.70;;;;;;4877751;29;20146;-78
2023/06/28 04:17:35;;;;;;;3.33;1.92;;;17.90;99.90;;;;;;4890884;29;20135;-78
2023/06/28 04:20:05;;;;;;;7.72;2.55;;;17.60;99.90;;;;;;4885484;29;20084;-78
2023/06/28 04:22:34;;;;;;;6.57;2.75;;;17.70;99.70;;;;;;4892221;29;20499;-78
2023/06/28 04:25:03;;;;;;;6.60;2.33;;;17.70;99.00;;;;;;4889426;29;20047;-78
2023/06/28 04:27:30;;;;;;;4.03;2.22;;;17.70;98.60;;;;;;4892401;29;20048;-78
2023/06/28 04:30:03;;;;;;;5.30;2.45;;;17.70;98.50;;;;;;4873521;29;20046;-78
2023/06/28 04:32:31;;;;;;;3.63;2.03;;;17.90;99.00;;;;;;4886741;29;20599;-78
2023/06/28 04:35:01;;;;;;;4.82;2.20;;;17.80;98.30;;;;;;4882356;29;20060;-78
2023/06/28 04:37:31;;;;;;;5.28;2.65;;;16.50;98.50;;;;;;4887493;29;20060;-78
2023/06/28 04:40:00;;;;;;;3.78;2.25;;;17.60;98.40;;;;;;4882283;29;20044;-78
2023/06/28 04:42:28;;;;;;;5.82;1.92;;;18.30;98.10;;;;;;4877031;29;20060;-78
2023/06/28 04:44:59;;;;;;;5.80;2.30;;;17.90;98.20;;;;;;4888028;29;20052;-78
2023/06/28 04:47:30;;;;;;;3.70;2.10;;;18.00;97.90;;;;;;4875345;29;20060;-78
2023/06/28 04:49:58;;;;;;;7.15;3.20;;;18.00;98.00;;;;;;4902010;29;20095;-78
2023/06/28 04:52:27;;;;;;;4.57;2.65;;;18.00;98.00;;;;;;4887567;29;20059;-78
2023/06/28 04:54:55;;;;;;;4.40;2.55;;;18.20;98.20;;;;;;4878257;29;20079;-78
2023/06/28 04:57:26;;;;;;;7.35;2.05;;;18.10;97.70;;;;;;4886033;29;20493;-78
2023/06/28 04:59:55;;;;;;;3.05;1.58;;;18.30;97.40;;;;;;4877564;29;22660;-78
2023/06/28 05:02:25;;;;;;;2.80;1.50;;;18.30;96.70;;;;;;4891734;29;20508;-78
2023/06/28 05:04:53;;;;;;;4.97;1.27;;;18.40;96.10;;;;;;4876869;29;20046;-79
2023/06/28 05:07:21;;;;;;;8.43;2.50;;;18.30;95.30;;;;;;4878194;29;20052;-78
2023/06/28 05:09:48;;;;;;;5.88;1.95;;;18.20;94.80;;;;;;4888894;29;20147;-78
2023/06/28 05:12:16;;;;;;;4.68;1.48;;;18.20;95.30;;;;;;4898378;29;20052;-78
2023/06/28 05:14:43;;;;;;;2.17;1.30;;;18.30;95.00;;;;;;4865261;29;20193;-78
2023/06/28 05:17:11;;;;;;;2.38;1.60;;;18.20;94.10;;;;;;4864753;29;20143;-78
2023/06/28 05:19:40;;;;;;;3.03;1.17;;;17.20;94.30;;;;;;4874549;29;20055;-78
2023/06/28 05:22:08;;;;;;;4.57;1.45;;;18.30;94.70;;;;;;4874989;29;20060;-78
2023/06/28 05:24:35;;;;;;;2.58;1.33;;;18.30;94.80;;;;;;4869875;29;20057;-78
2023/06/28 05:27:03;;;;;;;4.78;1.20;;;18.40;94.40;;;;;;4870296;29;20061;-78
2023/06/28 05:29:30;;;;;;;5.30;1.63;;;18.30;92.90;;;;;;4863072;29;20497;-77
2023/06/28 05:31:58;;;;;;;3.92;1.05;;;17.90;93.50;;;;;;4853245;29;20053;-78
2023/06/28 05:34:26;;;;;;;2.03;1.15;;;18.40;92.90;;;;;;4869637;29;20152;-78
2023/06/28 05:36:54;;;;;;;2.65;1.25;;;18.50;92.10;;;;;;4857948;29;20092;-77
2023/06/28 05:39:22;;;;;;;8.15;1.30;;;18.80;92.80;;;;;;4868866;29;20056;-78
2023/06/28 05:41:52;;;;;;;2.45;1.42;;;18.80;91.90;;;;;;4872627;29;20057;-79
2023/06/28 05:44:21;;;;;;;2.28;1.13;;;18.70;90.70;;;;;;4857582;29;20124;-78
2023/06/28 05:46:49;;;;;;;3.60;1.00;;;18.70;91.10;;;;;;4870256;29;20053;-77
2023/06/28 05:49:17;;;;;;;2.33;0.75;;;18.60;90.30;;;;;;4851375;29;20049;-79
2023/06/28 05:51:48;;;;;;;1.52;0.88;;;18.50;90.40;;;;;;4860190;29;20179;-78
2023/06/28 05:54:16;;;;;;;4.35;0.68;;;18.50;90.40;;;;;;4824724;29;20060;-77
2023/06/28 05:56:44;;;;;;;2.25;0.77;;;18.60;90.40;;;;;;4846617;29;20057;-78
2023/06/28 05:59:12;;;;;;;3.70;0.95;;;19.20;90.60;;;;;;4829735;29;20236;-77
2023/06/28 06:01:42;;;;;;;5.53;0.90;;;18.80;89.20;;;;;;4837746;29;20045;-78
2023/06/28 06:04:10;;;;;;;3.25;0.80;;;18.80;90.10;;;;;;4838319;29;20053;-78
2023/06/28 06:06:37;;;;;;;3.40;0.80;;;19.00;89.90;;;;;;4842250;29;20049;-77
2023/06/28 06:09:05;;;;;;;3.75;1.20;;;18.90;89.60;;;;;;4839614;29;20075;-78
2023/06/28 06:11:33;;;;;;;2.25;0.68;;;18.90;88.50;;;;;;4850654;29;20041;-78
2023/06/28 06:14:02;;;;;;;4.97;0.93;;;18.90;88.90;;;;;;4845934;29;20196;-78
2023/06/28 06:16:30;;;;;;;3.90;0.70;;;18.90;88.40;;;;;;4859327;29;20569;-78
2023/06/28 06:18:57;;;;;;;2.38;0.82;;;18.90;87.90;;;;;;4840987;29;20055;-78
2023/06/28 06:21:25;;;;;;;3.05;0.68;;;18.90;88.80;;;;;;4859306;29;20092;-77
2023/06/28 06:23:52;;;;;;;1.45;0.70;;;19.00;88.60;;;;;;4855430;29;20099;-77
2023/06/28 06:26:23;;;;;;;2.05;0.60;;;19.00;88.60;;;;;;4845900;29;20053;-78
2023/06/28 06:28:50;;;;;;;0.90;0.45;;;19.00;86.20;;;;;;4846858;29;20167;-79
2023/06/28 06:31:18;;;;;;;5.05;0.50;;;19.10;85.40;;;;;;4857814;29;20048;-77
2023/06/28 06:33:45;;;;;;;2.05;0.43;;;19.00;82.80;;;;;;4858377;29;20231;-79
2023/06/28 06:36:13;;;;;;;3.17;0.43;;;19.00;81.80;;;;;;4859479;29;20056;-78
2023/06/28 06:38:41;;;;;;;2.35;0.35;;;19.00;80.40;;;;;;4868110;29;20748;-78
2023/06/28 06:41:09;;;;;;;2.10;0.40;;;19.10;80.60;;;;;;4845189;29;20063;-80
2023/06/28 06:43:37;;;;;;;3.92;0.50;;;19.10;79.30;;;;;;4856800;29;20040;-78
2023/06/28 06:46:04;;;;;;;1.83;0.40;;;19.20;78.40;;;;;;4860482;29;20075;-77
2023/06/28 06:48:32;;;;;;;0.80;0.20;;;19.00;77.80;;;;;;4849996;29;20056;-77
2023/06/28 06:50:59;;;;;;;0.98;0.20;;;19.00;77.40;;;;;;4861219;29;20064;-77
2023/06/28 06:53:27;;;;;;;2.20;0.30;;;19.00;78.20;;;;;;4868550;29;20040;-76
2023/06/28 06:55:55;;;;;;;1.48;0.20;;;19.00;78.20;;;;;;4861499;29;22349;-78
2023/06/28 06:58:23;;;;;;;1.50;0.22;;;19.40;78.80;;;;;;4846252;29;20053;-78
2023/06/28 07:00:52;;;;;;;1.70;0.20;;;19.10;77.90;;;;;;4847412;29;20048;-77
2023/06/28 07:03:19;;;;;;;1.23;0.28;;;19.00;77.80;;;;;;4858581;29;20052;-77
2023/06/28 07:05:46;;;;;;;2.38;0.30;;;19.00;78.40;;;;;;4866279;29;20045;-78
2023/06/28 07:08:14;;;;;;;1.38;0.25;;;19.10;79.00;;;;;;4863884;29;20075;-77
2023/06/28 07:10:45;;;;;;;1.23;0.30;;;19.00;76.70;;;;;;4859315;29;20060;-77
2023/06/28 07:13:14;;;;;;;0.85;0.30;;;19.10;76.90;;;;;;4857022;29;20061;-78
2023/06/28 07:15:43;;;;;;;3.38;0.40;;;19.00;76.50;;;;;;4868742;29;20056;-78
2023/06/28 07:18:13;;;;;;;4.60;0.30;;;19.10;76.60;;;;;;4840495;29;20057;-79
2023/06/28 07:20:41;;;;;;;0.82;0.20;;;19.70;76.70;;;;;;4847561;29;20096;-79
2023/06/28 07:23:08;;;;;;;1.98;0.22;;;18.90;76.80;;;;;;4867077;29;20040;-77
2023/06/28 07:25:36;;;;;;;2.35;0.20;;;19.10;76.10;;;;;;4869925;29;20092;-78
2023/06/28 07:28:04;;;;;;;0.93;0.30;;;19.10;76.40;;;;;;4861741;29;20068;-77
2023/06/28 07:30:51;;;;;;;1.20;0.30;;;19.10;75.30;;;;;;4866998;29;20542;-77
2023/06/28 07:33:18;;;;;;;1.10;0.25;;;19.10;76.20;;;;;;4841514;29;20056;-77
2023/06/28 07:35:46;;;;;;;2.08;0.70;;;19.20;76.60;;;;;;4847010;29;20055;-77
2023/06/28 07:38:14;;;;;;;1.52;0.20;;;19.30;76.90;;;;;;4847475;29;20080;-77
2023/06/28 07:40:42;;;;;;;1.90;0.30;;;19.20;75.80;;;;;;4861708;29;20049;-79
2023/06/28 07:43:09;;;;;;;0.90;0.20;;;19.30;75.70;;;;;;4853420;29;20701;-78
2023/06/28 07:45:37;;;;;;;1.00;0.17;;;19.20;76.20;;;;;;4853620;29;20830;-77
2023/06/28 07:48:04;;;;;;;0.98;0.35;;;19.20;76.20;;;;;;4853441;29;20131;-78
2023/06/28 07:50:32;;;;;;;1.73;0.20;;;19.10;76.60;;;;;;4858532;29;20143;-77
2023/06/28 07:52:59;;;;;;;2.92;0.30;;;19.20;77.20;;;;;;4853030;29;20406;-78
2023/06/28 07:55:29;;;;;;;1.95;0.20;;;19.20;76.10;;;;;;4868207;29;20054;-78
2023/06/28 07:57:57;;;;;;;1.38;0.17;;;19.00;76.10;;;;;;4872549;29;20127;-78
2023/06/28 08:00:25;;;;;;;2.90;0.47;;;19.10;77.00;;;;;;4862494;29;20088;-78
2023/06/28 08:02:52;;;;;;;0.85;0.20;;;19.10;77.20;;;;;;4873057;29;20057;-78
2023/06/28 08:05:20;;;;;;;0.85;0.30;;;19.20;76.80;;;;;;4857656;29;20211;-78
2023/06/28 08:07:48;;;;;;;1.50;0.38;;;19.30;77.20;;;;;;4867477;29;20062;-77
2023/06/28 08:10:16;;;;;;;3.08;0.30;;;19.10;78.40;;;;;;4859786;29;20056;-77
2023/06/28 08:12:46;;;;;;;0.57;0.20;;;19.30;79.00;;;;;;4865104;29;20098;-78
2023/06/28 08:15:14;;;;;;;1.40;0.38;;;19.30;79.00;;;;;;4858167;29;20060;-77
2023/06/28 08:17:42;;;;;;;0.95;0.30;;;19.30;78.90;;;;;;4861731;29;20302;-79
2023/06/28 08:20:10;;;;;;;3.22;0.45;;;19.30;78.40;;;;;;4845423;29;20056;-78
2023/06/28 08:22:37;;;;;;;1.30;0.30;;;19.30;78.80;;;;;;4866712;29;20048;-77
2023/06/28 08:25:05;;;;;;;1.98;0.40;;;19.60;79.60;;;;;;4850063;29;20048;-77
2023/06/28 08:27:32;;;;;;;2.83;0.40;;;19.60;78.60;;;;;;4843040;29;20072;-76
2023/06/28 08:30:00;;;;;;;1.25;0.30;;;19.50;78.70;;;;;;4843841;29;20040;-77
2023/06/28 08:32:29;;;;;;;1.75;0.30;;;19.20;78.90;;;;;;4843575;29;20090;-77
2023/06/28 08:34:57;;;;;;;0.98;0.20;;;19.80;77.50;;;;;;4842678;29;20092;-77
2023/06/28 08:37:25;;;;;;;2.45;0.30;;;19.70;77.80;;;;;;4868033;29;20077;-77
2023/06/28 08:39:53;;;;;;;1.60;0.30;;;20.00;76.60;;;;;;4865146;29;20048;-77
2023/06/28 08:42:21;;;;;;;3.33;0.80;;;20.10;77.40;;;;;;4858449;29;20052;-78
2023/06/28 08:44:51;;;;;;;1.35;0.30;;;20.50;79.10;;;;;;4869906;29;20063;-77
2023/06/28 08:47:19;;;;;;;2.65;0.30;;;20.70;78.80;;;;;;4865237;29;20056;-77
2023/06/28 08:49:49;;;;;;;2.20;0.32;;;20.50;76.50;;;;;;4850355;29;22494;-79
2023/06/28 08:52:20;;;;;;;1.30;0.30;;;20.60;76.90;;;;;;4871420;29;20056;-77
2023/06/28 08:54:49;;;;;;;2.42;0.63;;;20.70;78.70;;;;;;4873740;29;20055;-78
2023/06/28 08:57:18;;;;;;;1.98;0.55;;;20.10;77.80;;;;;;4856247;29;20072;-76
2023/06/28 08:59:46;;;;;;;1.98;1.05;;;20.10;78.70;;;;;;4865416;29;20056;-77
2023/06/28 09:02:18;;;;;;;1.17;0.20;;;20.10;78.20;;;;;;4857452;29;20048;-78
2023/06/28 09:04:48;;;;;;;0.88;0.20;;;20.40;77.70;;;;;;4861996;29;22348;-78
2023/06/28 09:07:21;;;;;;;1.85;0.40;;;20.60;76.50;;;;;;4870694;29;20856;-78
2023/06/28 09:09:50;;;;;;;1.48;0.30;;;20.20;75.70;;;;;;4849931;29;20084;-78
2023/06/28 09:12:18;;;;;;;1.73;0.20;;;21.10;75.90;;;;;;4881924;29;23092;-77
2023/06/28 09:14:46;;;;;;;0.80;0.30;;;21.20;76.60;;;;;;4871910;29;20055;-77
2023/06/28 09:17:13;;;;;;;2.28;0.35;;;21.30;77.00;;;;;;4870433;29;20057;-78
2023/06/28 09:19:41;;;;;;;0.90;0.30;;;21.40;75.30;;;;;;4848764;29;20058;-78
2023/06/28 09:22:11;;;;;;;3.22;1.00;;;21.20;76.10;;;;;;4841053;29;20052;-77
2023/06/28 09:24:38;;;;;;;2.70;0.38;;;20.90;75.10;;;;;;4865338;29;20060;-78
2023/06/28 09:27:07;;;;;;;1.88;0.38;;;20.90;74.60;;;;;;4853340;29;20048;-78
2023/06/28 09:29:35;;;;;;;3.25;0.57;;;20.90;76.50;;;;;;4859312;29;20143;-78
2023/06/28 09:32:02;;;;;;;1.77;0.30;;;21.30;75.00;;;;;;4868034;29;20508;-78
2023/06/28 09:34:30;;;;;;;4.15;0.40;;;21.60;74.70;;;;;;4857240;29;20042;-77
2023/06/28 09:37:00;;;;;;;3.20;0.85;;;21.80;74.50;;;;;;4854774;29;20061;-78
2023/06/28 09:39:34;;;;;;;3.05;0.88;;;22.20;75.00;;;;;;4850844;29;20036;-78
2023/06/28 09:42:02;;;;;;;3.38;0.50;;;22.10;72.60;;;;;;4852590;29;20053;-78
2023/06/28 09:44:30;;;;;;;2.20;0.50;;;21.90;75.50;;;;;;4851989;29;20044;-78
2023/06/28 09:47:02;;;;;;;0.90;0.30;;;22.10;74.60;;;;;;4852079;29;20176;-79
2023/06/28 09:49:30;;;;;;;1.38;0.30;;;22.50;76.00;;;;;;4834309;29;20064;-78
2023/06/28 09:52:06;;;;;;;1.33;0.40;;;22.70;74.20;;;;;;4840615;29;20048;-78
2023/06/28 09:54:45;;;;;;;2.10;0.50;;;22.50;71.80;;;;;;4853729;29;20052;-78
2023/06/28 09:57:13;;;;;;;2.30;0.50;;;22.30;73.10;;;;;;4854136;29;20060;-80
2023/06/28 09:59:43;;;;;;;1.60;0.43;;;21.90;74.20;;;;;;4858348;29;20063;-78
2023/06/28 10:02:12;;;;;;;1.95;0.35;;;21.60;74.60;;;;;;4849186;29;20093;-78
2023/06/28 10:04:39;;;;;;;2.55;0.57;;;21.60;76.00;;;;;;4851404;29;20051;-77
2023/06/28 10:07:09;;;;;;;0.90;0.30;;;21.70;75.80;;;;;;4873490;29;20054;-77
2023/06/28 10:09:38;;;;;;;1.23;0.47;;;22.00;74.90;;;;;;4847086;29;20696;-78
2023/06/28 10:12:18;;;;;;;1.35;0.63;;;22.00;76.90;;;;;;4853208;29;20053;-77
2023/06/28 10:14:53;;;;;;;1.20;0.30;;;21.90;76.70;;;;;;4828541;29;20052;-77
2023/06/28 10:17:25;;;;;;;2.45;0.40;;;21.90;76.20;;;;;;4839758;29;20507;-77
2023/06/28 10:19:53;;;;;;;1.00;0.25;;;21.80;74.80;;;;;;4826973;29;20061;-80
2023/06/28 10:22:21;;;;;;;1.23;0.25;;;21.60;70.50;;;;;;4833551;29;22407;-77
2023/06/28 10:24:49;;;;;;;0.93;0.20;;;21.50;72.80;;;;;;4832161;29;20139;-76
2023/06/28 10:27:17;;;;;;;2.10;0.40;;;21.60;72.50;;;;;;4827628;29;20192;-76
2023/06/28 10:29:47;;;;;;;1.08;0.20;;;22.00;73.10;;;;;;4845131;29;20060;-77
2023/06/28 10:32:15;;;;;;;2.88;0.35;;;22.00;71.30;;;;;;4846926;29;20045;-79
2023/06/28 10:34:47;;;;;;;1.00;0.30;;;22.20;72.30;;;;;;4831363;29;20056;-78
2023/06/28 10:37:22;;;;;;;1.92;0.43;;;22.50;72.60;;;;;;4847735;29;20409;-79
2023/06/28 10:39:53;;;;;;;1.60;0.30;;;22.60;69.30;;;;;;4822907;29;20116;-78
2023/06/28 10:42:22;;;;;;;1.02;0.30;;;22.50;69.60;;;;;;4845602;29;20464;-79
2023/06/28 10:44:57;;;;;;;2.08;0.20;;;22.50;68.20;;;;;;4844487;29;20052;-78
2023/06/28 10:47:25;;;;;;;2.38;0.30;;;22.20;66.20;;;;;;4835219;29;20472;-77
2023/06/28 10:50:14;;;;;;;2.58;0.30;;;22.10;67.10;;;;;;4829335;29;20060;-78
2023/06/28 10:52:46;;;;;;;2.88;0.45;;;22.30;69.60;;;;;;4854821;29;20053;-75
2023/06/28 10:55:30;;;;;;;0.80;0.30;;;22.50;68.90;;;;;;4848052;29;20060;-75
2023/06/28 10:58:05;;;;;;;0.88;0.25;;;22.60;70.70;;;;;;4831451;29;20698;-77
2023/06/28 11:00:44;;;;;;;2.05;0.60;;;22.50;70.30;;;;;;4831044;29;20048;-80
2023/06/28 11:03:13;;;;;;;0.88;0.20;;;22.70;69.10;;;;;;4836667;29;20076;-79
2023/06/28 11:05:54;;;;;;;1.55;0.20;;;22.80;69.60;;;;;;4835749;29;20053;-77
2023/06/28 11:08:34;;;;;;;1.48;0.20;;;22.60;67.00;;;;;;4838898;29;20044;-78
2023/06/28 11:11:01;;;;;;;2.95;0.30;;;22.60;67.70;;;;;;4850341;29;20136;-77
2023/06/28 11:13:48;;;;;;;0.30;0.10;;;22.80;68.10;;;;;;4839062;29;20053;-77
2023/06/28 11:16:21;;;;;;;1.17;0.30;;;23.00;67.40;;;;;;4851544;29;20123;-77
2023/06/28 11:18:51;;;;;;;1.48;0.30;;;23.20;66.90;;;;;;4865349;29;20337;-78
2023/06/28 11:21:23;;;;;;;1.70;0.30;;;23.20;68.00;;;;;;4841017;29;20060;-77
2023/06/28 11:23:56;;;;;;;0.70;0.20;;;23.40;67.60;;;;;;4870670;29;20084;-78
2023/06/28 11:26:37;;;;;;;2.65;0.40;;;23.00;67.00;;;;;;4879288;29;20051;-77
2023/06/28 11:29:19;;;;;;;0.85;0.30;;;22.90;68.50;;;;;;4836601;29;20056;-77
2023/06/28 11:31:57;;;;;;;2.95;0.20;;;23.20;68.40;;;;;;4863421;29;20060;-78
2023/06/28 11:34:25;;;;;;;0.85;0.30;;;23.40;65.50;;;;;;4871481;29;20119;-77
2023/06/28 11:36:53;;;;;;;0.60;0.20;;;23.20;65.40;;;;;;4855175;29;22315;-77
2023/06/28 11:39:23;;;;;;;1.67;0.40;;;22.60;65.60;;;;;;4836085;29;20047;-77
2023/06/28 11:41:50;;;;;;;1.58;0.20;;;22.70;67.90;;;;;;4855372;29;20685;-78
2023/06/28 11:44:17;;;;;;;0.80;0.28;;;22.90;67.60;;;;;;4836585;29;20056;-78
2023/06/28 11:46:45;;;;;;;1.30;0.20;;;22.70;66.80;;;;;;4837034;29;20632;-79
2023/06/28 11:49:16;;;;;;;0.98;0.20;;;22.60;65.00;;;;;;4845801;29;20178;-78
2023/06/28 11:51:45;;;;;;;1.20;0.65;;;22.80;65.90;;;;;;4844019;29;20492;-77
2023/06/28 11:54:12;;;;;;;3.03;0.20;;;22.90;67.30;;;;;;4848800;29;20079;-77
2023/06/28 11:56:44;;;;;;;17.02;1.20;;;22.70;66.90;;;;;;4861771;29;20492;-78
2023/06/28 11:59:20;;;;;;;0.63;0.20;;;22.60;67.00;;;;;;4858133;29;20178;-77
2023/06/28 12:02:03;;;;;;;1.23;0.17;;;22.80;67.70;;;;;;4849818;29;20863;-77
2023/06/28 12:04:32;;;;;;;1.80;0.20;;;23.10;68.10;;;;;;4858885;29;20059;-78
2023/06/28 12:07:06;;;;;;;0.73;0.20;;;22.90;65.00;;;;;;4854811;29;20045;-78
2023/06/28 12:09:35;;;;;;;3.53;0.43;;;23.00;65.40;;;;;;4837178;29;20052;-76
2023/06/28 12:12:05;;;;;;;1.85;0.20;;;23.20;66.90;;;;;;4851871;29;20088;-80
2023/06/28 12:14:45;;;;;;;1.35;0.28;;;23.20;63.90;;;;;;4849856;29;20538;-76
2023/06/28 12:17:12;;;;;;;1.08;0.20;;;22.80;64.60;;;;;;4852335;29;20139;-75
2023/06/28 12:19:40;;;;;;;0.68;0.17;;;22.50;64.40;;;;;;4865605;29;20048;-76
2023/06/28 12:22:08;;;;;;;1.92;0.28;;;22.50;65.10;;;;;;4848635;29;20056;-75
2023/06/28 12:24:36;;;;;;;3.15;0.40;;;22.40;64.60;;;;;;4857466;29;20088;-76
2023/06/28 12:27:08;;;;;;;1.65;0.10;;;22.60;65.30;;;;;;4850946;29;20063;-75
2023/06/28 12:29:36;;;;;;;;;;;22.80;64.10;;;;;;4862609;29;20055;-76
2023/06/28 12:32:08;;;;;;;1.48;0.20;;;23.00;63.10;;;;;;4851875;29;19930;-76
2023/06/28 12:34:37;;;;;;;1.88;0.20;;;22.80;63.50;;;;;;4862212;29;20381;-76
2023/06/28 12:37:10;;;;;;;0.73;0.20;;;22.50;64.10;;;;;;4853795;29;20056;-76
2023/06/28 12:39:38;;;;;;;0.70;0.20;;;22.50;66.40;;;;;;4846237;29;21337;-76
2023/06/28 12:42:21;;;;;;;0.75;0.17;;;22.50;65.40;;;;;;4851180;29;20123;-77
2023/06/28 12:44:53;;;;;;;1.83;0.57;;;22.90;64.10;;;;;;4863420;29;22452;-76
2023/06/28 12:47:25;;;;;;;;;;;23.20;65.00;;;;;;4852070;29;20067;-78
2023/06/28 12:49:52;;;;;;;3.10;0.20;;;23.20;63.10;;;;;;4861374;29;20601;-76
2023/06/28 12:52:27;;;;;;;1.35;0.20;;;23.00;62.20;;;;;;4859303;29;20151;-78
2023/06/28 12:54:55;;;;;;;1.33;0.22;;;23.20;61.70;;;;;;4855520;29;20059;-77
2023/06/28 12:57:26;;;;;;;3.40;0.10;;;23.30;60.80;;;;;;4867850;29;20048;-78
2023/06/28 12:59:53;;;;;;;0.70;0.20;;;23.00;61.50;;;;;;4856934;29;20525;-76